createdAt,value
2017-06-17T00:01:15.761Z,57.20
2017-06-17T00:03:44.723Z,57.60
2017-06-17T00:06:13.193Z,57.60
2017-06-17T00:08:41.488Z,57.00
2017-06-17T00:11:09.729Z,57.30
2017-06-17T00:13:37.959Z,57.30
2017-06-17T00:16:06.226Z,56.60
2017-06-17T00:18:35.206Z,57.20
2017-06-17T00:21:03.441Z,57.00
2017-06-17T00:23:31.716Z,56.70
2017-06-17T00:25:59.947Z,56.40
2017-06-17T00:28:28.180Z,56.40
2017-06-17T00:30:56.439Z,56.90
2017-06-17T00:33:24.962Z,57.40
2017-06-17T00:35:53.228Z,57.30
2017-06-17T00:38:21.493Z,57.00
2017-06-17T00:40:49.757Z,57.20
2017-06-17T00:43:17.995Z,57.70
2017-06-17T00:45:46.286Z,56.60
2017-06-17T00:48:14.520Z,56.70
2017-06-17T00:50:42.995Z,57.20
2017-06-17T00:53:11.271Z,57.30
2017-06-17T00:55:39.512Z,57.40
2017-06-17T00:58:08.029Z,57.30
2017-06-17T01:00:36.354Z,56.90
2017-06-17T01:03:04.592Z,57.60
2017-06-17T01:05:32.828Z,58.50
2017-06-17T01:08:01.095Z,58.50
2017-06-17T01:10:29.358Z,58.30
2017-06-17T01:12:57.604Z,58.20
2017-06-17T01:15:26.267Z,57.90
2017-06-17T01:17:54.505Z,57.90
2017-06-17T01:20:22.740Z,58.50
2017-06-17T01:22:51.392Z,58.00
2017-06-17T01:25:19.624Z,58.00
2017-06-17T01:27:47.852Z,57.40
2017-06-17T01:30:16.148Z,57.20
2017-06-17T01:32:44.375Z,57.20
2017-06-17T01:35:12.605Z,57.20
2017-06-17T01:37:41.313Z,57.20
2017-06-17T01:40:09.549Z,57.20
2017-06-17T01:42:37.793Z,57.30
2017-06-17T01:45:06.050Z,56.60
2017-06-17T01:47:34.276Z,56.10
2017-06-17T01:50:02.504Z,56.60
2017-06-17T01:52:30.779Z,56.10
2017-06-17T01:54:59.011Z,57.00
2017-06-17T01:57:27.643Z,58.60
2017-06-17T01:59:55.912Z,58.60
2017-06-17T02:02:24.434Z,57.70
2017-06-17T02:04:52.697Z,57.90
2017-06-17T02:07:20.956Z,57.30
2017-06-17T02:09:49.194Z,57.00
2017-06-17T02:12:18.256Z,56.60
2017-06-17T02:14:46.623Z,56.40
2017-06-17T02:17:14.869Z,56.90
2017-06-17T02:19:43.109Z,57.20
2017-06-17T02:22:11.797Z,58.30
2017-06-17T02:24:40.427Z,57.60
2017-06-17T02:27:08.667Z,57.60
2017-06-17T02:29:36.941Z,57.40
2017-06-17T02:32:05.564Z,57.00
2017-06-17T02:34:33.796Z,57.00
2017-06-17T02:37:02.076Z,55.50
2017-06-17T02:39:30.700Z,57.40
2017-06-17T02:41:58.963Z,57.40
2017-06-17T02:44:27.247Z,56.40
2017-06-17T02:46:55.484Z,56.10
2017-06-17T02:49:23.730Z,57.60
2017-06-17T02:51:52.035Z,57.30
2017-06-17T02:54:20.589Z,57.90
2017-06-17T02:56:48.824Z,56.40
2017-06-17T02:59:17.101Z,56.10
2017-06-17T03:01:45.341Z,56.70
2017-06-17T03:04:13.959Z,56.70
2017-06-17T03:06:42.227Z,56.70
2017-06-17T03:09:10.460Z,56.70
2017-06-17T03:11:38.695Z,56.60
2017-06-17T03:14:06.956Z,56.90
2017-06-17T03:16:35.206Z,55.70
2017-06-17T03:19:03.434Z,56.70
2017-06-17T03:21:31.688Z,56.30
2017-06-17T03:24:00.138Z,56.60
2017-06-17T03:26:28.363Z,56.40
2017-06-17T03:28:56.627Z,56.10
2017-06-17T03:31:24.892Z,55.10
2017-06-17T03:33:53.123Z,55.10
2017-06-17T03:36:21.786Z,55.80
2017-06-17T03:38:50.012Z,55.80
2017-06-17T03:41:18.249Z,55.20
2017-06-17T03:43:46.516Z,55.50
2017-06-17T03:46:14.999Z,54.80
2017-06-17T03:48:43.227Z,54.10
2017-06-17T03:51:11.501Z,54.80
2017-06-17T03:53:39.737Z,55.20
2017-06-17T03:56:07.991Z,55.70
2017-06-17T03:58:36.687Z,56.00
2017-06-17T04:01:04.930Z,55.20
2017-06-17T04:03:33.155Z,56.10
2017-06-17T04:06:01.431Z,55.50
2017-06-17T04:08:29.669Z,55.20
2017-06-17T04:10:57.917Z,55.20
2017-06-17T04:13:26.203Z,53.80
2017-06-17T04:15:54.432Z,54.80
2017-06-17T04:18:23.072Z,55.40
2017-06-17T04:20:51.359Z,55.40
2017-06-17T04:23:19.636Z,53.80
2017-06-17T04:25:47.875Z,54.20
2017-06-17T04:28:16.157Z,54.90
2017-06-17T04:30:44.400Z,54.50
2017-06-17T04:33:13.043Z,54.80
2017-06-17T04:35:41.309Z,54.80
2017-06-17T04:38:09.548Z,54.10
2017-06-17T04:40:38.187Z,54.10
2017-06-17T04:43:06.451Z,54.10
2017-06-17T04:45:34.687Z,54.10
2017-06-17T04:48:02.909Z,54.50
2017-06-17T04:50:31.181Z,53.50
2017-06-17T04:52:59.680Z,53.20
2017-06-17T04:55:27.908Z,53.90
2017-06-17T04:57:56.436Z,54.50
2017-06-17T05:00:24.681Z,54.80
2017-06-17T05:02:52.946Z,54.50
2017-06-17T05:05:21.232Z,54.90
2017-06-17T05:07:49.532Z,55.10
2017-06-17T05:10:17.748Z,54.50
2017-06-17T05:12:46.413Z,53.90
2017-06-17T05:15:14.662Z,53.90
2017-06-17T05:17:42.891Z,54.10
2017-06-17T05:20:11.151Z,53.60
2017-06-17T05:22:39.785Z,53.30
2017-06-17T05:25:08.019Z,53.30
2017-06-17T05:27:36.704Z,53.50
2017-06-17T05:30:05.335Z,53.50
2017-06-17T05:32:33.572Z,53.50
2017-06-17T05:35:01.843Z,53.60
2017-06-17T05:37:30.084Z,53.50
2017-06-17T05:39:58.324Z,53.60
2017-06-17T05:42:26.843Z,52.70
2017-06-17T05:44:55.064Z,52.30
2017-06-17T05:47:23.384Z,53.00
2017-06-17T05:49:51.687Z,52.10
2017-06-17T05:52:20.319Z,51.50
2017-06-17T05:54:48.561Z,51.70
2017-06-17T05:57:16.847Z,52.40
2017-06-17T05:59:45.099Z,52.10
2017-06-17T06:02:13.353Z,52.40
2017-06-17T06:04:41.618Z,52.90
2017-06-17T06:07:09.882Z,52.70
2017-06-17T06:09:38.148Z,52.40
2017-06-17T06:12:06.410Z,52.00
2017-06-17T06:14:34.643Z,52.70
2017-06-17T06:17:02.881Z,52.40
2017-06-17T06:19:31.155Z,52.60
2017-06-17T06:21:59.387Z,53.30
2017-06-17T06:24:28.041Z,53.00
2017-06-17T06:26:56.304Z,53.00
2017-06-17T06:29:24.553Z,53.00
2017-06-17T06:31:52.824Z,52.40
2017-06-17T06:34:21.105Z,53.20
2017-06-17T06:36:49.355Z,52.60
2017-06-17T06:39:17.602Z,52.30
2017-06-17T06:41:45.880Z,53.00
2017-06-17T06:44:14.127Z,53.50
2017-06-17T06:46:42.370Z,53.60
2017-06-17T06:49:10.657Z,52.40
2017-06-17T06:51:38.895Z,52.30
2017-06-17T06:54:07.185Z,52.10
2017-06-17T06:56:35.857Z,54.10
2017-06-17T06:59:04.112Z,54.10
2017-06-17T07:01:32.355Z,53.00
2017-06-17T07:04:00.635Z,52.10
2017-06-17T07:06:28.868Z,52.30
2017-06-17T07:08:57.110Z,52.60
2017-06-17T07:11:25.597Z,50.20
2017-06-17T07:13:53.867Z,50.50
2017-06-17T07:16:22.104Z,50.80
2017-06-17T07:18:50.437Z,52.00
2017-06-17T07:21:18.656Z,50.10
2017-06-17T07:23:46.923Z,50.80
2017-06-17T07:26:15.364Z,50.50
2017-06-17T07:28:43.982Z,49.90
2017-06-17T07:31:12.230Z,49.90
2017-06-17T07:33:40.499Z,49.80
2017-06-17T07:36:08.732Z,49.50
2017-06-17T07:38:37.011Z,50.10
2017-06-17T07:41:05.284Z,48.90
2017-06-17T07:43:33.581Z,49.50
2017-06-17T07:46:01.819Z,48.90
2017-06-17T07:48:30.078Z,48.70
2017-06-17T07:50:58.705Z,48.60
2017-06-17T07:53:27.165Z,48.60
2017-06-17T07:55:55.465Z,48.70
2017-06-17T07:58:23.696Z,47.70
2017-06-17T08:00:51.931Z,48.00
2017-06-17T08:03:20.211Z,49.00
2017-06-17T08:05:48.447Z,47.80
2017-06-17T08:08:16.676Z,48.00
2017-06-17T08:10:45.015Z,48.00
2017-06-17T08:13:13.367Z,49.60
2017-06-17T08:15:41.601Z,49.00
2017-06-17T08:18:09.876Z,48.10
2017-06-17T08:20:38.189Z,47.70
2017-06-17T08:23:06.451Z,47.10
2017-06-17T08:25:35.141Z,46.40
2017-06-17T08:28:03.781Z,46.20
2017-06-17T08:30:32.198Z,46.20
2017-06-17T08:33:00.727Z,47.00
2017-06-17T08:35:28.975Z,47.50
2017-06-17T08:37:57.224Z,47.70
2017-06-17T08:40:25.519Z,44.10
2017-06-17T08:42:53.809Z,42.40
2017-06-17T08:45:22.044Z,41.80
2017-06-17T08:47:50.615Z,41.50
2017-06-17T08:50:18.877Z,41.50
2017-06-17T08:52:47.217Z,41.80
2017-06-17T08:55:15.514Z,41.30
2017-06-17T08:57:43.755Z,40.20
2017-06-17T09:00:12.048Z,40.20
2017-06-17T09:02:40.322Z,40.20
2017-06-17T09:05:08.966Z,39.70
2017-06-17T09:07:37.183Z,39.90
2017-06-17T09:10:05.469Z,39.60
2017-06-17T09:12:33.715Z,39.90
2017-06-17T09:15:01.997Z,39.60
2017-06-17T09:17:30.363Z,39.10
2017-06-17T09:19:58.919Z,38.50
2017-06-17T09:22:27.152Z,38.20
2017-06-17T09:24:55.436Z,38.40
2017-06-17T09:27:23.693Z,38.50
2017-06-17T09:29:52.327Z,38.40
2017-06-17T09:32:20.748Z,38.40
2017-06-17T09:34:49.007Z,38.20
2017-06-17T09:37:17.259Z,38.40
2017-06-17T09:39:45.522Z,39.10
2017-06-17T09:42:13.820Z,40.20
2017-06-17T09:44:42.067Z,40.20
2017-06-17T09:47:10.362Z,40.20
2017-06-17T09:49:38.599Z,38.10
2017-06-17T09:52:06.829Z,36.30
2017-06-17T09:54:35.097Z,33.20
2017-06-17T09:57:03.334Z,33.70
2017-06-17T09:59:31.856Z,34.00
2017-06-17T10:02:00.156Z,34.20
2017-06-17T10:04:28.408Z,31.60
2017-06-17T10:06:56.639Z,29.70
2017-06-17T10:09:24.948Z,29.70
2017-06-17T10:11:53.433Z,29.50
2017-06-17T10:14:21.680Z,28.60
2017-06-17T10:16:49.957Z,30.30
2017-06-17T10:19:18.471Z,30.10
2017-06-17T10:21:47.098Z,30.60
2017-06-17T10:24:15.374Z,30.60
2017-06-17T10:26:44.349Z,31.30
2017-06-17T10:29:12.795Z,30.60
2017-06-17T10:31:42.349Z,30.80
2017-06-17T10:34:10.576Z,30.30
2017-06-17T10:36:38.810Z,30.80
2017-06-17T10:39:07.739Z,29.40
2017-06-17T10:41:36.039Z,30.40
2017-06-17T10:44:04.306Z,29.80
2017-06-17T10:46:32.648Z,29.40
2017-06-17T10:49:01.158Z,29.20
2017-06-17T10:51:29.640Z,29.70
2017-06-17T10:53:57.913Z,30.10
2017-06-17T10:56:26.144Z,31.10
2017-06-17T10:58:54.379Z,29.40
2017-06-17T11:01:23.200Z,29.60
2017-06-17T11:03:51.438Z,29.60
2017-06-17T11:06:19.669Z,28.80
2017-06-17T11:08:47.937Z,29.20
2017-06-17T11:11:16.172Z,29.10
2017-06-17T11:13:44.407Z,29.60
2017-06-17T11:16:12.701Z,29.80
2017-06-17T11:18:41.188Z,29.60
2017-06-17T11:21:09.439Z,30.70
2017-06-17T11:23:37.832Z,30.70
2017-06-17T11:26:06.062Z,31.00
2017-06-17T11:28:34.292Z,31.00
2017-06-17T11:31:02.565Z,31.60
2017-06-17T11:33:30.826Z,31.60
2017-06-17T11:35:59.094Z,29.70
2017-06-17T11:38:27.354Z,29.70
2017-06-17T11:40:55.620Z,29.60
2017-06-17T11:43:23.851Z,29.10
2017-06-17T11:45:52.112Z,29.20
2017-06-17T11:48:20.343Z,29.80
2017-06-17T11:50:48.583Z,29.10
2017-06-17T11:53:16.869Z,29.80
2017-06-17T11:55:45.496Z,29.20
2017-06-17T11:58:13.731Z,29.20
2017-06-17T12:00:42.010Z,28.90
2017-06-17T12:03:10.567Z,28.90
2017-06-17T12:05:38.795Z,28.40
2017-06-17T12:08:07.168Z,28.20
2017-06-17T12:10:35.424Z,29.60
2017-06-17T12:13:03.875Z,30.30
2017-06-17T12:15:32.140Z,29.70
2017-06-17T12:18:00.524Z,29.30
2017-06-17T12:20:28.797Z,29.60
2017-06-17T12:22:57.127Z,29.30
2017-06-17T12:25:25.365Z,28.80
2017-06-17T12:27:53.616Z,29.30
2017-06-17T12:30:21.928Z,29.00
2017-06-17T12:32:50.169Z,28.80
2017-06-17T12:35:18.409Z,29.00
2017-06-17T12:37:46.686Z,29.50
2017-06-17T12:40:15.011Z,29.90
2017-06-17T12:42:43.241Z,29.50
2017-06-17T12:45:11.509Z,29.50
2017-06-17T12:47:39.744Z,28.70
2017-06-17T12:50:07.990Z,28.70
2017-06-17T12:52:36.268Z,28.80
2017-06-17T12:55:04.517Z,28.30
2017-06-17T12:57:32.760Z,28.40
2017-06-17T13:00:01.135Z,28.50
2017-06-17T13:02:29.352Z,29.40
2017-06-17T13:04:57.604Z,28.90
2017-06-17T13:07:25.890Z,28.80
2017-06-17T13:09:54.513Z,29.10
2017-06-17T13:12:22.749Z,29.10
2017-06-17T13:14:51.291Z,27.90
2017-06-17T13:17:19.556Z,28.90
2017-06-17T13:19:48.044Z,28.40
2017-06-17T13:22:16.733Z,28.50
2017-06-17T13:24:44.977Z,27.50
2017-06-17T13:27:13.225Z,27.10
2017-06-17T13:29:41.530Z,28.60
2017-06-17T13:32:09.770Z,28.00
2017-06-17T13:34:38.021Z,30.10
2017-06-17T13:37:06.316Z,28.80
2017-06-17T13:39:34.566Z,29.10
2017-06-17T13:42:02.801Z,30.30
2017-06-17T13:44:31.117Z,28.20
2017-06-17T13:46:59.378Z,29.30
2017-06-17T13:49:27.622Z,28.60
2017-06-17T13:51:55.937Z,28.10
2017-06-17T13:54:24.180Z,29.80
2017-06-17T13:56:52.493Z,29.80
2017-06-17T13:59:20.764Z,30.70
2017-06-17T14:01:49.005Z,30.60
2017-06-17T14:04:17.245Z,30.30
2017-06-17T14:06:45.893Z,31.00
2017-06-17T14:09:14.154Z,31.00
2017-06-17T14:11:42.412Z,31.00
2017-06-17T14:14:10.696Z,30.40
2017-06-17T14:16:38.931Z,30.30
2017-06-17T14:19:07.583Z,29.50
2017-06-17T14:21:41.424Z,29.40
2017-06-17T14:24:10.281Z,29.40
2017-06-17T14:26:38.558Z,29.40
2017-06-17T14:29:06.862Z,29.50
2017-06-17T14:31:35.105Z,29.20
2017-06-17T14:34:03.345Z,28.90
2017-06-17T14:36:31.879Z,29.20
2017-06-17T14:39:00.115Z,31.10
2017-06-17T14:41:28.352Z,31.60
2017-06-17T14:43:57.005Z,31.00
2017-06-17T14:46:25.239Z,31.00
2017-06-17T14:48:53.476Z,30.60
2017-06-17T14:51:22.145Z,32.20
2017-06-17T14:53:50.384Z,32.30
2017-06-17T14:56:18.612Z,31.10
2017-06-17T14:58:46.908Z,32.50
2017-06-17T15:01:15.171Z,30.40
2017-06-17T15:03:43.807Z,32.50
2017-06-17T15:06:12.098Z,32.50
2017-06-17T15:08:40.331Z,31.60
2017-06-17T15:11:08.569Z,33.50
2017-06-17T15:13:36.848Z,32.60
2017-06-17T15:16:05.073Z,32.50
2017-06-17T15:18:33.593Z,31.00
2017-06-17T15:21:01.849Z,32.30
2017-06-17T15:23:30.963Z,31.30
2017-06-17T15:25:59.855Z,31.90
2017-06-17T15:28:28.143Z,33.40
2017-06-17T15:30:56.776Z,32.20
2017-06-17T15:33:25.004Z,32.20
2017-06-17T15:35:54.184Z,32.50
2017-06-17T15:38:22.459Z,32.50
2017-06-17T15:40:50.684Z,33.70
2017-06-17T15:43:18.993Z,33.20
2017-06-17T15:45:47.213Z,32.50
2017-06-17T15:48:15.852Z,31.90
2017-06-17T15:50:44.143Z,31.70
2017-06-17T15:53:12.415Z,32.90
2017-06-17T15:55:40.640Z,32.20
2017-06-17T15:58:08.927Z,32.20
2017-06-17T16:00:37.352Z,32.30
2017-06-17T16:03:05.976Z,33.40
2017-06-17T16:05:34.267Z,32.20
2017-06-17T16:08:03.304Z,34.40
2017-06-17T16:10:31.540Z,33.50
2017-06-17T16:12:59.824Z,32.80
2017-06-17T16:15:28.141Z,32.90
2017-06-17T16:17:56.592Z,33.20
2017-06-17T16:20:25.102Z,33.50
2017-06-17T16:22:53.332Z,34.00
2017-06-17T16:25:21.580Z,33.80
2017-06-17T16:27:50.263Z,32.80
2017-06-17T16:30:18.499Z,32.80
2017-06-17T16:32:46.739Z,34.20
2017-06-17T16:35:15.011Z,33.20
2017-06-17T16:37:43.260Z,33.50
2017-06-17T16:40:11.886Z,33.40
2017-06-17T16:42:40.503Z,33.40
2017-06-17T16:45:08.754Z,33.40
2017-06-17T16:47:37.270Z,32.80
2017-06-17T16:50:05.620Z,33.40
2017-06-17T16:52:33.867Z,34.10
2017-06-17T16:55:02.105Z,33.10
2017-06-17T16:57:30.702Z,34.00
2017-06-17T16:59:59.111Z,33.50
2017-06-17T17:02:27.386Z,33.70
2017-06-17T17:04:55.686Z,33.70
2017-06-17T17:07:23.929Z,34.20
2017-06-17T17:09:52.254Z,34.50
2017-06-17T17:12:20.981Z,35.60
2017-06-17T17:14:49.315Z,35.60
2017-06-17T17:17:18.724Z,36.00
2017-06-17T17:19:47.020Z,35.30
2017-06-17T17:22:15.690Z,36.20
2017-06-17T17:24:44.057Z,35.10
2017-06-17T17:27:12.335Z,35.70
2017-06-17T17:29:40.589Z,35.60
2017-06-17T17:32:08.819Z,35.60
2017-06-17T17:34:37.182Z,36.30
2017-06-17T17:37:05.418Z,35.70
2017-06-17T17:39:33.659Z,36.20
2017-06-17T17:42:02.037Z,36.20
2017-06-17T17:44:30.327Z,35.90
2017-06-17T17:46:58.559Z,36.00
2017-06-17T17:49:26.862Z,36.30
2017-06-17T17:51:55.552Z,36.50
2017-06-17T17:54:23.788Z,36.50
2017-06-17T17:56:52.082Z,36.30
2017-06-17T17:59:20.736Z,36.00
2017-06-17T18:01:48.980Z,36.00
2017-06-17T18:04:17.276Z,36.60
2017-06-17T18:06:45.544Z,37.20
2017-06-17T18:09:13.803Z,36.90
2017-06-17T18:11:42.104Z,36.90
2017-06-17T18:14:10.379Z,37.20
2017-06-17T18:16:38.623Z,38.10
2017-06-17T18:19:07.165Z,38.20
2017-06-17T18:21:35.458Z,37.60
2017-06-17T18:24:03.688Z,38.50
2017-06-17T18:26:31.953Z,37.90
2017-06-17T18:29:00.185Z,38.40
2017-06-17T18:31:28.854Z,39.70
2017-06-17T18:33:57.156Z,39.70
2017-06-17T18:36:25.807Z,40.00
2017-06-17T18:38:54.256Z,40.00
2017-06-17T18:41:22.552Z,40.00
2017-06-17T18:43:50.787Z,40.60
2017-06-17T18:46:19.015Z,40.30
2017-06-17T18:48:47.285Z,39.70
2017-06-17T18:51:15.561Z,40.30
2017-06-17T18:53:43.800Z,42.40
2017-06-17T18:56:12.174Z,40.00
2017-06-17T18:58:40.412Z,40.30
2017-06-17T19:01:08.672Z,40.90
2017-06-17T19:03:37.352Z,40.50
2017-06-17T19:06:05.590Z,40.70
2017-06-17T19:08:33.820Z,40.60
2017-06-17T19:11:02.084Z,41.60
2017-06-17T19:13:30.328Z,41.80
2017-06-17T19:15:58.575Z,42.70
2017-06-17T19:18:27.272Z,42.20
2017-06-17T19:20:55.507Z,42.20
2017-06-17T19:23:23.805Z,42.50
2017-06-17T19:25:52.461Z,42.10
2017-06-17T19:28:20.696Z,42.70
2017-06-17T19:30:48.951Z,44.30
2017-06-17T19:33:17.220Z,45.80
2017-06-17T19:35:45.888Z,44.10
2017-06-17T19:38:14.124Z,44.10
2017-06-17T19:40:42.396Z,45.00
2017-06-17T19:43:10.623Z,46.50
2017-06-17T19:45:38.864Z,44.90
2017-06-17T19:48:07.144Z,45.80
2017-06-17T19:50:35.392Z,45.60
2017-06-17T19:53:03.623Z,46.20
2017-06-17T19:55:32.341Z,45.00
2017-06-17T19:58:00.600Z,45.00
2017-06-17T20:00:28.832Z,45.20
2017-06-17T20:02:57.121Z,46.10
2017-06-17T20:05:25.359Z,45.80
2017-06-17T20:07:53.628Z,48.00
2017-06-17T20:10:22.147Z,45.50
2017-06-17T20:12:51.494Z,45.80
2017-06-17T20:15:19.737Z,45.80
2017-06-17T20:17:48.443Z,47.00
2017-06-17T20:20:16.683Z,47.00
2017-06-17T20:22:47.809Z,48.10
2017-06-17T20:25:16.058Z,45.60
2017-06-17T20:27:44.315Z,46.20
2017-06-17T20:30:12.717Z,45.80
2017-06-17T20:32:40.962Z,45.90
2017-06-17T20:35:09.588Z,46.40
2017-06-17T20:37:37.874Z,46.40
2017-06-17T20:40:06.115Z,48.10
2017-06-17T20:42:34.344Z,46.40
2017-06-17T20:45:02.699Z,47.30
2017-06-17T20:47:30.944Z,50.10
2017-06-17T20:49:59.182Z,46.80
2017-06-17T20:52:27.756Z,47.70
2017-06-17T20:54:56.012Z,48.30
2017-06-17T20:57:24.509Z,46.10
2017-06-17T20:59:52.768Z,47.10
2017-06-17T21:02:21.272Z,47.80
2017-06-17T21:04:49.511Z,46.80
2017-06-17T21:07:17.810Z,47.70
2017-06-17T21:09:46.067Z,47.70
2017-06-17T21:12:14.299Z,46.20
2017-06-17T21:14:42.583Z,46.70
2017-06-17T21:17:10.852Z,50.10
2017-06-17T21:19:39.497Z,45.60
2017-06-17T21:22:07.763Z,45.60
2017-06-17T21:24:35.988Z,47.10
2017-06-17T21:27:04.619Z,46.10
2017-06-17T21:29:32.896Z,46.10
2017-06-17T21:32:01.151Z,47.40
2017-06-17T21:34:29.401Z,49.00
2017-06-17T21:36:58.195Z,46.80
2017-06-17T21:39:26.603Z,46.80
2017-06-17T21:41:54.831Z,47.30
2017-06-17T21:44:23.135Z,48.40
2017-06-17T21:46:51.366Z,48.10
2017-06-17T21:49:19.709Z,48.60
2017-06-17T21:51:48.023Z,49.20
2017-06-17T21:54:16.704Z,48.00
2017-06-17T21:56:45.111Z,48.90
2017-06-17T21:59:13.481Z,49.50
2017-06-17T22:01:42.351Z,50.10
2017-06-17T22:04:10.876Z,50.20
2017-06-17T22:06:39.253Z,50.50
2017-06-17T22:09:07.764Z,50.90
2017-06-17T22:11:35.987Z,50.90
2017-06-17T22:14:04.272Z,53.20
2017-06-17T22:16:32.718Z,52.70
2017-06-17T22:19:00.946Z,49.30
2017-06-17T22:21:29.230Z,49.80
2017-06-17T22:23:57.471Z,50.40
2017-06-17T22:26:25.770Z,52.00
2017-06-17T22:28:54.076Z,49.60
2017-06-17T22:31:22.559Z,50.50
2017-06-17T22:33:50.967Z,50.90
2017-06-17T22:36:19.292Z,50.90
2017-06-17T22:38:47.714Z,53.60
2017-06-17T22:41:15.970Z,53.60
2017-06-17T22:43:44.254Z,52.00
2017-06-17T22:46:12.598Z,50.50
2017-06-17T22:48:42.441Z,50.10
2017-06-17T22:51:11.241Z,50.80
2017-06-17T22:53:40.541Z,51.40
2017-06-17T22:56:09.154Z,51.70
2017-06-17T22:58:39.390Z,50.20
2017-06-17T23:01:08.139Z,50.80
2017-06-17T23:03:36.394Z,50.90
2017-06-17T23:06:04.677Z,50.70
2017-06-17T23:08:32.908Z,49.30
2017-06-17T23:11:01.464Z,49.30
2017-06-17T23:13:29.727Z,49.50
2017-06-17T23:15:58.008Z,49.20
2017-06-17T23:18:26.247Z,48.90
2017-06-17T23:20:54.519Z,48.60
2017-06-17T23:23:22.755Z,48.40
2017-06-17T23:25:50.981Z,48.10
2017-06-17T23:28:19.257Z,48.40
2017-06-17T23:30:47.764Z,48.70
2017-06-17T23:33:16.002Z,48.40
2017-06-17T23:35:44.363Z,48.30
2017-06-17T23:38:12.599Z,48.30
2017-06-17T23:40:40.842Z,48.40
2017-06-17T23:43:09.110Z,48.30
2017-06-17T23:45:37.347Z,48.60
2017-06-17T23:48:05.676Z,49.20
2017-06-17T23:50:33.952Z,52.00
2017-06-17T23:53:02.183Z,53.20
2017-06-17T23:55:30.436Z,52.70
2017-06-17T23:57:58.715Z,53.00
